This is the latest recevied weather packets stored in our database for station/object HB9MIR-13. If no packets are shown the sender has not sent any weather packets the latest 10 day(s).
| Time | Temp. | Humidity | Pressure | Rain* | Wind** | Luminosity | Snow |
|---|---|---|---|---|---|---|---|
| 1777529797 | 7.78° C | 46% | 1021.8 hPa | 0 mm | - | 48 W/m² | - |
| 1777529110 | 7.78° C | 47% | 1021.7 hPa | 0 mm | - | 46 W/m² | - |
| 1777528373 | 7.78° C | 52% | 1021.5 hPa | 0 mm | - | 43 W/m² | - |
| 1777527671 | 7.78° C | 47% | 1021.5 hPa | 0 mm | - | 40 W/m² | - |
| 1777526985 | 7.78° C | 48% | 1021.5 hPa | 0 mm | - | 37 W/m² | - |
| 1777526298 | 7.22° C | 48% | 1021.3 hPa | 0 mm | - | 34 W/m² | - |
| 1777525611 | 5.56° C | 50% | 1021.2 hPa | 0 mm | - | 30 W/m² | - |
| 1777524875 | 6.67° C | 53% | 1021.2 hPa | 0 mm | - | 24 W/m² | - |
| 1777524172 | 7.78° C | 47% | 1021.1 hPa | 0 mm | - | 19 W/m² | - |
| 1777523485 | 7.78° C | 47% | 1021 hPa | 0 mm | - | 13 W/m² | - |
| 1777522797 | 8.33° C | 45% | 1020.9 hPa | 0 mm | - | 7 W/m² | - |
| 1777522111 | 8.33° C | 44% | 1020.7 hPa | 0 mm | - | 3 W/m² | - |
| 1777521375 | 8.33° C | 43% | 1020.7 hPa | 0 mm | - | 1 W/m² | - |
| 1777520674 | 8.33° C | 44% | 1020.7 hPa | 0 mm | - | 0 W/m² | - |
| 1777519988 | 8.33° C | 45% | 1020.7 hPa | 0 mm | - | 0 W/m² | - |
| 1777519299 | 8.33° C | 44% | 1020.6 hPa | 0 mm | - | 0 W/m² | - |
| 1777518611 | 8.89° C | 43% | 1020.5 hPa | 0 mm | - | 0 W/m² | - |
| 1777517875 | 7.78° C | 45% | 1020.4 hPa | 0 mm | - | 0 W/m² | - |
| 1777517179 | 7.22° C | 47% | 1020.3 hPa | 0 mm | - | 0 W/m² | - |
| 1777516487 | 7.22° C | 54% | 1020.2 hPa | 0 mm | - | 0 W/m² | - |
| 1777515800 | 10° C | 40% | 1020.2 hPa | 0 mm | - | 0 W/m² | - |
| 1777515113 | 10° C | 40% | 1020.2 hPa | 0 mm | - | 0 W/m² | - |
| 1777514425 | 10° C | 40% | 1020.3 hPa | 0 mm | - | 0 W/m² | - |
| 1777513736 | 10° C | 39% | 1020.2 hPa | 0 mm | - | 0 W/m² | - |
| 1777513002 | 10.56° C | 39% | 1020.1 hPa | 0 mm | - | 0 W/m² | - |
* Rain latest hour (hover to see other rain measurements)
** Current wind speed in m/s (hover to see current wind gust speed)